• Join FlightAware (Why Join?)
  • Login
  • US Flag 
12:32PM EDT


 

Airport Tracker/Info


-or-


 

Live Flight TrackerFlight Track Log ✈ N47NG ✈ 07-Nov-2013 ✈ KROC - KOXC

Flight Track Log - Related Links

Times and Time Zones

All times are in EST time to prevent confusion due to time zone crossing. See the N47NG flight status page for this flight to view local times or setup timezone preferences in your user account.

Time Position Orientation Groundspeed Altitude Reporting Facility
EST Latitude Longitude Course Direction KTS MPH feet Rate Location/Type
03:56PM 43.1228 -77.6800 248° West 106 122 1,200  Level Cleveland Center
03:57PM 43.1103 -77.7231 248° West 147 169 2,700 1,500 Climbing Cleveland Center
03:57PM 43.1036 -77.7231 180° South 172 198 3,000 1,680 Climbing Cleveland Center
03:58PM 43.0594 -77.7014 160° South 170 196 4,800 1,680 Climbing Cleveland Center
03:59PM 43.0206 -77.6639 145° Southeast 174 200 6,500 1,620 Climbing Cleveland Center
04:00PM 43.0036 -77.5942 108° East 190 219 8,200 1,560 Climbing Cleveland Center
04:01PM 42.9883 -77.5222 106° East 195 224 9,800 1,560 Climbing Cleveland Center
04:02PM 42.9711 -77.4494 108° East 200 230 11,500 1,740 Climbing Cleveland Center
04:03PM 42.9525 -77.3611 106° East 200 230 13,400 1,620 Climbing Cleveland Center
04:04PM 42.9361 -77.2856 106° East 205 236 14,900 1,440 Climbing Cleveland Center
04:05PM 42.9183 -77.2078 107° East 210 242 16,400 1,500 Climbing Cleveland Center
04:06PM 42.9011 -77.1281 106° East 217 250 18,000 1,500 Climbing Cleveland Center
04:07PM 42.8836 -77.0472 106° East 221 254 19,600 1,500 Climbing Cleveland Center
04:08PM 42.8661 -76.9681 107° East 219 252 21,000 1,320 Climbing Boston Center
04:09PM 42.8469 -76.8842 107° East 230 265 22,200 960 Climbing Boston Center
04:10PM 42.8281 -76.7986 107° East 235 270 23,000 360 Climbing Boston Center
04:11PM 42.8047 -76.6969 107° East 276 318 23,000  Level Boston Center
04:12PM 42.7803 -76.5878 107° East 299 344 23,000  Level Boston Center
04:13PM 42.7536 -76.4739 108° East 313 360 23,000  Level Boston Center
04:14PM 42.7228 -76.3617 110° East 317 365 23,000  Level Boston Center
04:15PM 42.6903 -76.2336 109° East 315 362 23,000  Level Boston Center
04:16PM 42.6578 -76.1208 111° Southeast 317 365 23,000  Level Boston Center
04:17PM 42.6269 -76.0106 111° Southeast 317 365 23,000  Level Boston Center
04:18PM 42.5958 -75.8964 110° East 321 369 23,000  Level Boston Center
04:19PM 42.5647 -75.7861 111° Southeast 318 366 23,000 -300 Level Boston Center
04:20PM 42.5281 -75.6583 111° Southeast 309 356 22,400 -540 Descending Boston Center
04:22PM 42.4986 -75.5519 111° Southeast 305 351 21,900 -540 Descending Boston Center
04:23PM 42.4683 -75.4464 111° Southeast 304 350 21,400 -540 Descending Boston Center
04:24PM 42.4381 -75.3389 111° Southeast 306 352 20,900 -540 Descending Boston Center
04:25PM 42.4083 -75.2325 111° Southeast 305 351 20,400 -540 Descending Boston Center
04:26PM 42.3783 -75.1283 111° Southeast 301 346 19,900 -540 Descending Boston Center
04:27PM 42.3503 -75.0283 111° Southeast 291 335 19,400 -540 Descending Boston Center
04:28PM 42.3214 -74.9328 112° Southeast 279 321 18,900 -540 Descending Boston Center
04:29PM 42.2881 -74.8128 111° Southeast 285 328 18,400 -540 Descending Boston Center
04:30PM 42.2597 -74.7153 111° Southeast 281 323 17,900 -480 Descending Boston Center
04:31PM 42.2331 -74.6206 111° Southeast 272 313 17,500 -420 Descending Boston Center
04:32PM 42.2047 -74.5283 112° Southeast 268 308 17,100 -240 Descending Boston Center
04:33PM 42.1664 -74.4467 122° Southeast 258 297 17,100 -180 Level Boston Center
04:34PM 42.1200 -74.3497 123° Southeast 272 313 16,800 -660 Descending Boston Center
04:35PM 42.0794 -74.2622 122° Southeast 275 316 15,800 -900 Descending Boston Center
04:36PM 42.0386 -74.1747 122° Southeast 276 318 15,000 -420 Descending Boston Center
04:37PM 41.9972 -74.0861 122° Southeast 278 320 15,000  Level Boston Center
04:38PM 41.9522 -73.9894 122° Southeast 283 326 15,000 -540 Level Boston Center
04:39PM 41.9094 -73.8981 122° Southeast 290 334 14,000 -1,020 Descending Boston Center
04:40PM 41.8667 -73.8078 122° Southeast 287 330 13,000 -960 Descending Boston Center
04:41PM 41.8194 -73.7072 122° Southeast 293 337 12,000 -840 Descending Boston Center
04:42PM 41.7767 -73.6158 122° Southeast 290 334 11,300 -900 Descending Boston Center
04:43PM 41.7114 -73.5742 155° Southeast 260 299 10,300 -1,020 Descending Boston Center
04:44PM 41.6450 -73.5411 160° South 256 295 9,300 -1,020 Descending Boston Center
04:45PM 41.5744 -73.5067 160° South 251 289 8,200 -1,500 Descending Boston Center
04:46PM 41.5142 -73.4669 154° Southeast 248 285 6,300 -1,320 Descending Boston Center
04:48PM 41.4000 -73.3500 142° Southeast 243 280 4,000 -900 Descending New York TRACON
04:49PM 41.3333 -73.3000 151° Southeast 241 277 3,400 -540 Descending New York TRACON
04:50PM 41.3000 -73.2333 124° Southeast 224 258 3,000 -240 Descending New York TRACON
04:51PM 41.3000 -73.1667 90° East 190 219 3,000  Level New York TRACON
04:52PM 41.3167 -73.1167 66° East 155 178 3,000  Level New York TRACON
04:53PM 41.3500 -73.1000 21° North 135 155 3,000 -240 Level New York TRACON
04:54PM 41.3833 -73.1167 339° North 94 108 2,500 -480 Descending New York TRACON
04:55PM 41.4167 -73.1167 360° North 89 102 2,100 -480 Descending New York TRACON
04:56PM 41.4333 -73.1333 323° Northwest 94 108 1,600 -540 Descending New York TRACON
04:57PM 41.4667 -73.1333 360° North 98 113 1,100 -540 Descending New York TRACON